Data for 06/30/2015

Time Sea-Level Adjusted Pressure Absolute Pressure Temperature Relative Humidity Dew Point   
(mb) (inHg) (mb) (inHg) (C) (F) (%) (C) (F)
00:05 1021 30.15 851 25.13 18.2 64.8 63 11.1 51.9
00:10 1021 30.15 851 25.13 18.5 65.2 65 11.7 53.1
00:15 1021 30.15 851 25.13 18.2 64.7 64 11.3 52.3
00:20 1021 30.15 851 25.13 18.3 64.9 63 11.3 52.4
00:25 1021 30.15 851 25.13 18.3 65 63 11.3 52.3
00:30 1021 30.15 850 25.1 18.4 65 63 11.3 52.3
00:35 1021 30.15 850 25.1 18.3 65 64 11.4 52.6
00:40 1021 30.15 850 25.1 18.2 64.8 64 11.5 52.6
00:45 1021 30.15 850 25.1 18.1 64.5 65 11.5 52.8
00:50 1021 30.15 850 25.1 17.7 63.9 67 11.7 53
00:55 1021 30.15 850 25.1 17.3 63.2 69 11.6 52.9
01:00 1021 30.15 850 25.1 17.1 62.8 69 11.5 52.7
01:05 1021 30.15 850 25.1 17.1 62.7 70 11.6 52.8
01:10 1021 30.15 850 25.1 16.9 62.3 72 11.9 53.4
01:15 1021 30.15 850 25.1 16.7 62 71 11.4 52.5
01:20 1021 30.15 850 25.1 16.7 62.1 69 11.2 52.1
01:25 1021 30.15 850 25.1 16.9 62.4 69 11.3 52.3
01:30 1021 30.15 850 25.1 16.9 62.5 71 11.8 53.2
01:35 1021 30.15 850 25.1 17 62.6 70 11.5 52.8
01:40 1021 30.15 850 25.1 17.1 62.8 68 11.1 52
01:45 1021 30.15 850 25.1 17.2 63 68 11.2 52.2
01:50 1021 30.15 850 25.1 17 62.5 70 11.5 52.6
01:55 1021 30.15 850 25.1 16.6 61.8 72 11.6 52.8
02:00 1021 30.15 851 25.13 16.4 61.6 72 11.5 52.7
02:05 1021 30.15 851 25.13 16.4 61.6 70 10.9 51.7
02:10 1021 30.15 851 25.13 16.7 62.1 69 11 51.7
02:15 1022 30.18 851 25.13 16.7 62 71 11.5 52.7
02:20 1022 30.18 851 25.13 16 60.9 74 11.4 52.5
02:25 1022 30.18 851 25.13 15.8 60.4 74 11.2 52.1
02:30 1022 30.18 851 25.13 15.6 60.1 75 11.3 52.4
02:35 1022 30.18 851 25.13 15.6 60 75 11.2 52.2
02:40 1022 30.18 851 25.13 15.4 59.7 76 11.2 52.1
02:45 1022 30.18 851 25.13 15.3 59.5 76 11.1 52
02:50 1022 30.18 851 25.13 15.4 59.8 75 11 51.8
02:55 1022 30.18 851 25.13 15.6 60 74 11.1 51.9
03:00 1022 30.18 851 25.13 15.6 60.2 78 11.8 53.3
03:05 1022 30.18 851 25.13 15.8 60.5 74 11.2 52.2
03:10 1022 30.18 851 25.13 15.7 60.3 75 11.4 52.5
03:15 1022 30.18 851 25.13 15.7 60.2 74 11.1 51.9
03:20 1022 30.18 852 25.16 15.7 60.2 74 11 51.8
03:25 1023 30.21 852 25.16 15.9 60.5 73 11.1 52
03:30 1023 30.21 853 25.19 16 60.8 71 10.9 51.6
03:35 1023 30.21 853 25.19 16.3 61.3 71 11.2 52.1
03:40 1024 30.24 853 25.19 16.3 61.4 72 11.3 52.3
03:45 1024 30.24 853 25.19 16.4 61.5 73 11.6 53
03:50 1024 30.24 853 25.19 16.2 61.1 75 11.8 53.2
03:55 1024 30.24 853 25.19 16 60.9 78 12.2 54
04:00 1024 30.24 853 25.19 15.9 60.6 79 12.3 54.2
04:05 1024 30.24 853 25.19 15.9 60.5 80 12.4 54.4
04:10 1023 30.21 853 25.19 15.8 60.5 82 12.8 55.1
04:15 1023 30.21 852 25.16 15.3 59.6 84 12.6 54.7
04:20 1023 30.21 852 25.16 15.1 59.2 82 12.1 53.8
04:25 1023 30.21 852 25.16 15.1 59.1 85 12.5 54.5
04:30 1023 30.21 852 25.16 15.1 59.1 85 12.7 54.8
04:35 1022 30.18 852 25.16 15.5 59.8 83 12.5 54.6
04:40 1022 30.18 852 25.16 15.7 60.2 81 12.5 54.5
04:45 1022 30.18 852 25.16 15.9 60.6 81 12.6 54.6
04:50 1022 30.18 851 25.13 15.9 60.6 79 12.2 54
04:55 1022 30.18 851 25.13 16.3 61.3 77 12.3 54.2
05:00 1022 30.18 851 25.13 16.4 61.5 76 12.3 54.1
05:05 1022 30.18 851 25.13 16.4 61.4 78 12.5 54.6
05:10 1022 30.18 851 25.13 15.9 60.7 83 13 55.5
05:15 1022 30.18 851 25.13 15.3 59.6 83 12.5 54.5
05:20 1022 30.18 851 25.13 15.4 59.8 81 12.2 54
05:25 1022 30.18 851 25.13 15.6 60.1 81 12.4 54.4
05:30 1022 30.18 851 25.13 15.7 60.2 80 12.3 54.1
05:35 1022 30.18 851 25.13 15.9 60.6 79 12.4 54.3
05:40 1022 30.18 851 25.13 16.2 61.1 77 12.2 54
05:45 1022 30.18 851 25.13 16.4 61.6 76 12.3 54.1
05:50 1022 30.18 851 25.13 16.4 61.6 76 12.2 53.9
05:55 1022 30.18 851 25.13 16.7 62 74 12 53.7
06:00 1022 30.18 851 25.13 17 62.5 74 12.4 54.3
06:05 1022 30.18 851 25.13 17.2 63 74 12.5 54.5
06:10 1022 30.18 851 25.13 17.3 63.1 76 13.1 55.5
06:15 1022 30.18 851 25.13 17.3 63.1 74 12.6 54.6
06:20 1022 30.18 851 25.13 17.7 63.8 75 13.2 55.8
06:25 1022 30.18 851 25.13 18.1 64.6 73 13.4 56.1
06:30 1022 30.18 851 25.13 18.3 65 71 13 55.4
06:35 1022 30.18 852 25.16 18.7 65.7 69 13.1 55.5
06:40 1022 30.18 852 25.16 18.9 66 70 13.4 56.1
06:45 1022 30.18 852 25.16 18.8 65.8 70 13.2 55.8
06:50 1022 30.18 852 25.16 18.7 65.6 72 13.6 56.5
06:55 1022 30.18 852 25.16 18.8 65.9 73 13.8 56.9
07:00 1022 30.18 852 25.16 19.1 66.4 70 13.6 56.4
07:05 1022 30.18 852 25.16 18.8 65.9 72 13.7 56.7
07:10 1022 30.18 852 25.16 19.1 66.3 68 13.2 55.7
07:15 1022 30.18 852 25.16 19.4 66.8 70 13.8 56.8
07:20 1022 30.18 852 25.16 19.8 67.7 67 13.7 56.6
07:25 1023 30.21 852 25.16 20.1 68.2 64 13.2 55.8
07:30 1022 30.18 852 25.16 20.3 68.5 63 13.2 55.7
07:35 1023 30.21 852 25.16 20.1 68.1 64 13.2 55.7
07:40 1023 30.21 852 25.16 20.5 69 61 12.9 55.2
07:45 1023 30.21 852 25.16 21.5 70.7 59 13.3 55.9
07:50 1023 30.21 852 25.16 22.1 71.7 56 13.1 55.6
07:55 1023 30.21 852 25.16 22.7 72.9 54 13.1 55.6
08:00 1023 30.21 852 25.16 22.4 72.3 55 13 55.3
08:05 1023 30.21 852 25.16 22.5 72.5 55 13.1 55.6
08:10 1023 30.21 852 25.16 23.3 74 50 12.5 54.6
08:15 1023 30.21 852 25.16 23.6 74.4 49 12.5 54.5
08:20 1023 30.21 852 25.16 23.6 74.4 48 12.2 53.9
08:25 1023 30.21 852 25.16 23.4 74.1 48 11.9 53.3
08:30 1023 30.21 852 25.16 23.3 73.9 48 11.9 53.5
08:35 1023 30.21 852 25.16 23.8 74.8 46 11.8 53.2
08:40 1022 30.18 852 25.16 23.9 75.1 46 11.8 53.3
08:45 1022 30.18 852 25.16 24.5 76.1 45 12 53.5
08:50 1022 30.18 852 25.16 25.1 77.2 43 12 53.6
08:55 1022 30.18 852 25.16 25.3 77.5 42 11.8 53.2
09:00 1022 30.18 852 25.16 25.4 77.8 43 12 53.7
09:05 1022 30.18 852 25.16 25 76.9 44 11.9 53.5
09:10 1022 30.18 852 25.16 25 77 43 11.8 53.2
09:15 1022 30.18 851 25.13 25.3 77.5 43 11.9 53.4
09:20 1022 30.18 851 25.13 25.5 77.9 43 12.2 53.9
09:25 1022 30.18 851 25.13 25 77 42 11.4 52.6
09:30 1022 30.18 851 25.13 25.7 78.3 40 11.4 52.5
09:35 1022 30.18 851 25.13 26 78.8 41 11.8 53.3
09:40 1022 30.18 851 25.13 26.3 79.3 39 11.5 52.6
09:45 1022 30.18 851 25.13 26.5 79.6 39 11.4 52.6
09:50 1022 30.18 851 25.13 26.1 78.9 38 10.9 51.6
09:55 1022 30.18 851 25.13 25.5 77.9 40 11.2 52.1
10:00 1022 30.18 851 25.13 25.8 78.5 39 11 51.8
10:05 1022 30.18 851 25.13 26.3 79.4 36 10.5 50.8
10:10 1022 30.18 851 25.13 26.5 79.7 37 10.9 51.7
10:15 1022 30.18 851 25.13 26.4 79.5 37 10.8 51.5
10:20 1022 30.18 851 25.13 27.2 80.9 35 10.4 50.8
10:25 1022 30.18 851 25.13 27.8 82.1 34 10.8 51.4
10:30 1022 30.18 851 25.13 28 82.4 35 11.4 52.5
10:35 1022 30.18 851 25.13 27.9 82.2 34 10.9 51.7
10:40 1022 30.18 851 25.13 28.1 82.6 34 10.8 51.5
10:45 1022 30.18 851 25.13 28.3 82.9 33 10.9 51.6
10:50 1022 30.18 851 25.13 28 82.5 33 10.6 51.1
10:55 1022 30.18 851 25.13 28.2 82.7 32 10.4 50.7
11:00 1022 30.18 851 25.13 28.3 83 31 10.1 50.1
11:05 1022 30.18 851 25.13 28.4 83.1 33 10.6 51.2
11:10 1022 30.18 851 25.13 28.3 82.9 33 10.6 51
11:15 1022 30.18 851 25.13 28.5 83.3 32 10.4 50.6
11:20 1022 30.18 851 25.13 28.5 83.3 32 10.5 50.8
11:25 1022 30.18 851 25.13 28.8 83.8 29 9.3 48.8
11:30 1022 30.18 851 25.13 29 84.2 28 9.1 48.4
11:35 1022 30.18 851 25.13 29.1 84.5 26 8.3 46.9
11:40 1022 30.18 851 25.13 28.8 83.9 27 8.1 46.6
11:45 1022 30.18 851 25.13 28.9 84.1 25 7.4 45.3
11:50 1021 30.15 851 25.13 29 84.3 23 6.4 43.5
11:55 1021 30.15 851 25.13 29.6 85.3 22 6.2 43.1
12:00 1021 30.15 851 25.13 29.9 85.8 20 5.2 41.4
12:05 1021 30.15 851 25.13 29.9 85.8 19 4 39.2
12:10 1021 30.15 851 25.13 29.9 85.9 19 3.9 39
12:15 1021 30.15 851 25.13 30 86 20 5.2 41.4
12:20 1021 30.15 850 25.1 30.2 86.3 19 4.3 39.8
12:25 1021 30.15 850 25.1 30.3 86.5 19 4.3 39.7
12:30 1021 30.15 850 25.1 30.5 86.9 20 5.6 42.1
12:35 1021 30.15 850 25.1 30.1 86.3 19 4.6 40.4
12:40 1021 30.15 850 25.1 29.9 85.8 21 5.3 41.5
12:45 1021 30.15 850 25.1 30.3 86.6 21 6 42.8
12:50 1021 30.15 850 25.1 30.3 86.5 22 6.3 43.3
12:55 1021 30.15 850 25.1 30.7 87.3 21 6.5 43.6
13:00 1021 30.15 850 25.1 31 87.8 21 6.7 44.1
13:05 1021 30.15 850 25.1 30.8 87.5 23 7.8 46.1
13:10 1021 30.15 850 25.1 30.4 86.7 24 7.8 46.1
13:15 1021 30.15 850 25.1 30.5 86.9 23 7.5 45.5
13:20 1020 30.12 850 25.1 31.2 88.1 22 7.5 45.4
13:25 1020 30.12 850 25.1 30.8 87.5 25 8.6 47.5
13:30 1020 30.12 850 25.1 30.7 87.3 23 7.4 45.2
13:35 1020 30.12 849 25.07 31.1 88 23 7.9 46.3
13:40 1020 30.12 849 25.07 30.8 87.4 22 7.1 44.8
13:45 1020 30.12 849 25.07 29.9 85.8 24 7.4 45.4
13:50 1020 30.12 849 25.07 29.7 85.5 24 7.3 45.2
13:55 1020 30.12 849 25.07 30.3 86.5 24 7.6 45.6
14:00 1020 30.12 849 25.07 31.1 87.9 24 8.3 46.9
14:05 1020 30.12 849 25.07 30.4 86.7 23 7 44.6
14:10 1020 30.12 849 25.07 30.4 86.7 23 7.3 45.1
14:15 1020 30.12 849 25.07 31.3 88.4 21 6.5 43.7
14:20 1020 30.12 849 25.07 31.4 88.5 19 5.5 41.9
14:25 1020 30.12 849 25.07 31.2 88.2 21 6.5 43.7
14:30 1020 30.12 849 25.07 30.8 87.4 20 5.5 41.8
14:35 1020 30.12 849 25.07 31 87.8 20 5.5 41.9
14:40 1020 30.12 849 25.07 31.5 88.7 20 6.2 43.1
14:45 1020 30.12 849 25.07 31.4 88.6 18 4.7 40.4
14:50 1019 30.09 849 25.07 31.7 89 19 6 42.7
14:55 1019 30.09 849 25.07 32.2 90 17 4.7 40.4
15:00 1019 30.09 849 25.07 32.5 90.4 18 5.3 41.5
15:05 1019 30.09 849 25.07 32.5 90.5 18 5.1 41.3
15:10 1019 30.09 848 25.04 32.4 90.3 17 4.4 40
15:15 1019 30.09 848 25.04 32.2 90 18 4.9 40.9
15:20 1019 30.09 848 25.04 31.5 88.7 18 4.9 40.7
15:25 1019 30.09 848 25.04 31.8 89.2 18 4.6 40.2
15:30 1019 30.09 848 25.04 31.8 89.2 17 4.5 40
15:35 1019 30.09 848 25.04 31.3 88.3 18 4.8 40.6
15:40 1019 30.09 848 25.04 31.1 87.9 19 4.9 40.8
15:45 1019 30.09 848 25.04 30.9 87.6 18 3.8 38.9
15:50 1019 30.09 848 25.04 31.2 88.1 16 2.9 37.3
15:55 1019 30.09 848 25.04 31.9 89.4 15 2.8 37.1
16:00 1019 30.09 848 25.04 32.2 89.9 15 3 37.4
16:05 1019 30.09 848 25.04 31.7 89.1 17 3.8 38.8
16:10 1019 30.09 848 25.04 31.2 88.1 18 4.4 39.9
16:15 1019 30.09 848 25.04 31.4 88.5 18 4.6 40.3
16:20 1019 30.09 848 25.04 32.2 89.9 15 3 37.3
16:25 1019 30.09 848 25.04 32.5 90.4 16 3.4 38.2
16:30 1019 30.09 848 25.04 32.5 90.5 15 3.1 37.5
16:35 1019 30.09 848 25.04 32.3 90.2 15 3.2 37.7
16:40 1019 30.09 848 25.04 32.3 90.1 15 3.2 37.7
16:45 1019 30.09 848 25.04 32.5 90.5 15 3.3 37.9
16:50 1019 30.09 848 25.04 32.5 90.4 15 2.8 37.1
16:55 1019 30.09 848 25.04 32.1 89.7 15 2.7 36.8
17:00 1019 30.09 848 25.04 32.1 89.7 15 2.8 37
17:05 1019 30.09 848 25.04 32.6 90.7 15 3.1 37.6
17:10 1019 30.09 848 25.04 32.5 90.6 15 3 37.4
17:15 1019 30.09 848 25.04 32.4 90.4 15 3 37.4
17:20 1019 30.09 848 25.04 32.3 90.2 15 3.3 37.9
17:25 1019 30.09 848 25.04 32.1 89.8 16 3.4 38.1
17:30 1019 30.09 848 25.04 31.7 89.1 18 4.5 40.1
17:35 1019 30.09 848 25.04 31.2 88.2 17 3.5 38.2
17:40 1019 30.09 848 25.04 31.2 88.1 17 3.7 38.6
17:45 1019 30.09 848 25.04 30.9 87.6 18 4.3 39.7
17:50 1019 30.09 848 25.04 31.2 88.2 17 3.9 39.1
17:55 1019 30.09 848 25.04 30.7 87.3 18 4.3 39.8
18:00 1019 30.09 848 25.04 30.7 87.2 17 3.1 37.5
18:05 1019 30.09 848 25.04 30.7 87.3 18 3.7 38.7
18:10 1019 30.09 848 25.04 31.1 88 18 4.1 39.4
18:15 1019 30.09 848 25.04 31 87.8 19 4.7 40.5
18:20 1019 30.09 848 25.04 30.6 87.1 19 4.4 39.9
18:25 1019 30.09 848 25.04 30.6 87.1 20 5.5 41.9
18:30 1019 30.09 848 25.04 30.3 86.5 20 5 41
18:35 1019 30.09 848 25.04 29.8 85.7 20 4.9 40.8
18:40 1019 30.09 848 25.04 29.8 85.6 20 5.1 41.1
18:45 1019 30.09 848 25.04 29.7 85.5 20 4.8 40.6
18:50 1019 30.09 848 25.04 29.6 85.3 20 4.9 40.9
18:55 1019 30.09 848 25.04 29.5 85.1 21 5.3 41.6
19:00 1019 30.09 848 25.04 29.3 84.7 22 5.6 42
19:05 1019 30.09 848 25.04 29.1 84.5 22 5.6 42.1
19:10 1019 30.09 848 25.04 29 84.2 22 5.8 42.4
19:15 1019 30.09 848 25.04 28.9 84 23 5.7 42.2
19:20 1019 30.09 848 25.04 28.7 83.7 23 5.6 42.1
19:25 1019 30.09 848 25.04 28.6 83.5 23 5.6 42
19:30 1019 30.09 848 25.04 28.5 83.3 23 5.9 42.7
19:35 1019 30.09 848 25.04 28.4 83.1 23 5.7 42.3
19:40 1019 30.09 848 25.04 28.3 82.9 24 5.8 42.5
19:45 1019 30.09 848 25.04 28.1 82.6 24 6 42.8
19:50 1019 30.09 849 25.07 28 82.4 26 7.1 44.8
19:55 1019 30.09 849 25.07 27.9 82.2 25 6.1 43
20:00 1019 30.09 849 25.07 27.7 81.9 25 6.2 43.2
20:05 1019 30.09 849 25.07 27.6 81.7 26 6.7 44
20:10 1019 30.09 849 25.07 27.4 81.3 26 6.4 43.6
20:15 1020 30.12 849 25.07 27.1 80.9 27 6.6 43.9
20:20 1020 30.12 849 25.07 26.9 80.5 27 6.7 44.1
20:25 1020 30.12 849 25.07 26.8 80.2 28 7.1 44.7
20:30 1020 30.12 849 25.07 26.6 79.8 28 6.9 44.5
20:35 1020 30.12 849 25.07 26.4 79.6 28 6.8 44.3
20:40 1020 30.12 849 25.07 26.3 79.3 31 8.1 46.5
20:45 1020 30.12 849 25.07 25.4 77.8 34 8.7 47.6
20:50 1020 30.12 849 25.07 24.5 76.1 40 10.3 50.5
20:55 1020 30.12 849 25.07 23.6 74.5 42 10.1 50.1
21:00 1020 30.12 849 25.07 23.1 73.5 43 10.1 50.1
21:05 1020 30.12 849 25.07 22.5 72.5 46 10.4 50.7
21:10 1020 30.12 849 25.07 22.2 71.9 44 9.7 49.4
21:15 1020 30.12 849 25.07 22.2 72 43 9.1 48.3
21:20 1020 30.12 849 25.07 22.5 72.5 46 10.4 50.6
21:25 1020 30.12 849 25.07 22.4 72.3 44 9.7 49.4
21:30 1020 30.12 850 25.1 22.3 72.1 47 10.5 51
21:35 1020 30.12 850 25.1 21.9 71.4 46 9.9 49.8
21:40 1020 30.12 850 25.1 21.3 70.3 49 10.1 50.3
21:45 1020 30.12 850 25.1 21 69.7 47 9.5 49.2
21:50 1021 30.15 850 25.1 21 69.8 49 10 50
21:55 1021 30.15 850 25.1 20.8 69.4 48 9.5 49.2
22:00 1021 30.15 850 25.1 20.7 69.2 49 9.6 49.3
22:05 1021 30.15 850 25.1 20.7 69.2 48 9.3 48.7
22:10 1021 30.15 850 25.1 20.8 69.4 48 9.5 49.1
22:15 1021 30.15 850 25.1 20.8 69.5 47 9.4 48.9
22:20 1021 30.15 850 25.1 20.3 68.5 50 9.7 49.4
22:25 1021 30.15 850 25.1 19.8 67.6 51 9.6 49.2
22:30 1021 30.15 850 25.1 19.6 67.3 51 9.4 48.9
22:35 1021 30.15 850 25.1 19.5 67.2 51 9.2 48.6
22:40 1021 30.15 850 25.1 19.6 67.3 49 8.8 47.8
22:45 1021 30.15 850 25.1 19.9 67.7 48 8.7 47.6
22:50 1021 30.15 850 25.1 20 68 47 8.6 47.4
22:55 1021 30.15 850 25.1 20.2 68.3 46 8.3 47
23:00 1021 30.15 850 25.1 20.3 68.5 46 8.3 46.9
23:05 1021 30.15 850 25.1 20.3 68.5 45 8 46.3
23:10 1021 30.15 850 25.1 20.5 68.9 44 8 46.5
23:15 1021 30.15 850 25.1 20.3 68.5 45 8.1 46.6
23:20 1021 30.15 850 25.1 20.2 68.3 46 8.2 46.8
23:25 1021 30.15 850 25.1 19.9 67.9 45 7.9 46.2
23:30 1021 30.15 850 25.1 19.9 67.8 46 8.2 46.7
23:35 1021 30.15 850 25.1 19.5 67.2 48 8.5 47.3
23:40 1021 30.15 851 25.13 19.2 66.6 49 8.4 47.2
23:45 1021 30.15 851 25.13 19 66.3 49 8.2 46.8
23:50 1021 30.15 851 25.13 19.3 66.7 47 7.9 46.2
23:55 1021 30.15 851 25.13 19.7 67.5 46 7.9 46.2
24:00 1021 30.15 850 25.1 19.5 67.2 46 7.7 45.8